sensor_id;sensor_type;location;lat;lon;timestamp;temperature;humidity
39677;DHT22;27789;50.840;4.386;2023-06-10T00:00:38;23.50;96.60
39677;DHT22;27789;50.840;4.386;2023-06-10T00:03:06;23.50;96.60
39677;DHT22;27789;50.840;4.386;2023-06-10T00:05:32;23.50;96.60
39677;DHT22;27789;50.840;4.386;2023-06-10T00:08:00;23.50;96.70
39677;DHT22;27789;50.840;4.386;2023-06-10T00:10:26;23.40;96.60
39677;DHT22;27789;50.840;4.386;2023-06-10T00:12:52;23.40;96.60
39677;DHT22;27789;50.840;4.386;2023-06-10T00:15:18;23.40;96.70
39677;DHT22;27789;50.840;4.386;2023-06-10T00:17:43;23.30;96.70
39677;DHT22;27789;50.840;4.386;2023-06-10T00:20:09;23.30;96.70
39677;DHT22;27789;50.840;4.386;2023-06-10T00:22:37;23.30;96.80
39677;DHT22;27789;50.840;4.386;2023-06-10T00:25:07;23.20;96.80
39677;DHT22;27789;50.840;4.386;2023-06-10T00:27:34;23.20;96.90
39677;DHT22;27789;50.840;4.386;2023-06-10T00:30:03;23.20;97.00
39677;DHT22;27789;50.840;4.386;2023-06-10T00:32:32;23.10;96.90
39677;DHT22;27789;50.840;4.386;2023-06-10T00:34:57;23.10;96.90
39677;DHT22;27789;50.840;4.386;2023-06-10T00:37:23;23.10;96.90
39677;DHT22;27789;50.840;4.386;2023-06-10T00:39:48;23.10;97.00
39677;DHT22;27789;50.840;4.386;2023-06-10T00:42:14;23.00;97.00
39677;DHT22;27789;50.840;4.386;2023-06-10T00:44:39;23.00;97.10
39677;DHT22;27789;50.840;4.386;2023-06-10T00:47:05;23.00;97.00
39677;DHT22;27789;50.840;4.386;2023-06-10T00:49:31;23.00;97.10
39677;DHT22;27789;50.840;4.386;2023-06-10T00:51:57;23.00;97.10
39677;DHT22;27789;50.840;4.386;2023-06-10T00:54:22;22.90;97.10
39677;DHT22;27789;50.840;4.386;2023-06-10T00:56:48;22.80;97.20
39677;DHT22;27789;50.840;4.386;2023-06-10T00:59:15;22.80;97.10
39677;DHT22;27789;50.840;4.386;2023-06-10T01:01:41;22.90;97.30
39677;DHT22;27789;50.840;4.386;2023-06-10T01:04:08;22.90;97.20
39677;DHT22;27789;50.840;4.386;2023-06-10T01:07:17;22.80;97.20
39677;DHT22;27789;50.840;4.386;2023-06-10T01:14:33;22.70;97.30
39677;DHT22;27789;50.840;4.386;2023-06-10T01:17:00;22.70;97.30
39677;DHT22;27789;50.840;4.386;2023-06-10T01:19:26;22.70;97.20
39677;DHT22;27789;50.840;4.386;2023-06-10T01:21:53;22.70;97.30
39677;DHT22;27789;50.840;4.386;2023-06-10T01:24:20;22.60;97.40
39677;DHT22;27789;50.840;4.386;2023-06-10T01:26:47;22.60;97.40
39677;DHT22;27789;50.840;4.386;2023-06-10T01:29:21;22.50;97.40
39677;DHT22;27789;50.840;4.386;2023-06-10T01:34:21;22.50;97.50
39677;DHT22;27789;50.840;4.386;2023-06-10T01:36:49;22.50;97.60
39677;DHT22;27789;50.840;4.386;2023-06-10T01:39:15;22.50;97.50
39677;DHT22;27789;50.840;4.386;2023-06-10T01:41:41;22.50;97.70
39677;DHT22;27789;50.840;4.386;2023-06-10T01:44:07;22.40;97.50
39677;DHT22;27789;50.840;4.386;2023-06-10T01:46:33;22.40;97.60
39677;DHT22;27789;50.840;4.386;2023-06-10T01:48:58;22.40;97.60
39677;DHT22;27789;50.840;4.386;2023-06-10T01:51:24;22.40;97.50
39677;DHT22;27789;50.840;4.386;2023-06-10T01:53:49;22.30;97.60
39677;DHT22;27789;50.840;4.386;2023-06-10T01:56:15;22.30;97.70
39677;DHT22;27789;50.840;4.386;2023-06-10T01:58:45;22.30;97.70
39677;DHT22;27789;50.840;4.386;2023-06-10T02:01:10;22.30;97.60
39677;DHT22;27789;50.840;4.386;2023-06-10T02:03:36;22.30;97.70
39677;DHT22;27789;50.840;4.386;2023-06-10T02:06:01;22.30;97.70
39677;DHT22;27789;50.840;4.386;2023-06-10T02:08:27;22.20;97.60
39677;DHT22;27789;50.840;4.386;2023-06-10T02:10:53;22.30;97.70
39677;DHT22;27789;50.840;4.386;2023-06-10T02:13:18;22.20;97.80
39677;DHT22;27789;50.840;4.386;2023-06-10T02:15:44;22.20;97.70
39677;DHT22;27789;50.840;4.386;2023-06-10T02:18:09;22.20;97.80
39677;DHT22;27789;50.840;4.386;2023-06-10T02:20:37;22.20;97.80
39677;DHT22;27789;50.840;4.386;2023-06-10T02:23:03;22.20;97.90
39677;DHT22;27789;50.840;4.386;2023-06-10T02:25:28;22.20;97.90
39677;DHT22;27789;50.840;4.386;2023-06-10T02:27:54;22.10;98.00
39677;DHT22;27789;50.840;4.386;2023-06-10T02:30:20;22.10;98.00
39677;DHT22;27789;50.840;4.386;2023-06-10T02:32:45;22.00;98.10
39677;DHT22;27789;50.840;4.386;2023-06-10T02:35:13;22.00;98.20
39677;DHT22;27789;50.840;4.386;2023-06-10T02:37:39;21.90;98.40
39677;DHT22;27789;50.840;4.386;2023-06-10T02:40:05;21.90;98.30
39677;DHT22;27789;50.840;4.386;2023-06-10T02:42:31;21.90;98.30
39677;DHT22;27789;50.840;4.386;2023-06-10T02:44:56;21.90;98.30
39677;DHT22;27789;50.840;4.386;2023-06-10T02:47:22;21.80;98.30
39677;DHT22;27789;50.840;4.386;2023-06-10T02:49:47;21.80;98.30
39677;DHT22;27789;50.840;4.386;2023-06-10T02:52:13;21.90;98.40
39677;DHT22;27789;50.840;4.386;2023-06-10T02:54:38;21.80;98.40
39677;DHT22;27789;50.840;4.386;2023-06-10T02:57:05;21.80;98.40
39677;DHT22;27789;50.840;4.386;2023-06-10T02:59:31;21.80;98.40
39677;DHT22;27789;50.840;4.386;2023-06-10T03:01:57;21.80;98.40
39677;DHT22;27789;50.840;4.386;2023-06-10T03:04:22;21.80;98.40
39677;DHT22;27789;50.840;4.386;2023-06-10T03:06:49;21.80;98.50
39677;DHT22;27789;50.840;4.386;2023-06-10T03:09:14;21.70;98.60
39677;DHT22;27789;50.840;4.386;2023-06-10T03:11:41;21.70;98.70
39677;DHT22;27789;50.840;4.386;2023-06-10T03:14:07;21.70;98.70
39677;DHT22;27789;50.840;4.386;2023-06-10T03:16:32;21.70;98.70
39677;DHT22;27789;50.840;4.386;2023-06-10T03:18:58;21.70;98.70
39677;DHT22;27789;50.840;4.386;2023-06-10T03:21:23;21.60;98.80
39677;DHT22;27789;50.840;4.386;2023-06-10T03:23:49;21.60;98.80
39677;DHT22;27789;50.840;4.386;2023-06-10T03:26:14;21.60;98.90
39677;DHT22;27789;50.840;4.386;2023-06-10T03:28:41;21.60;98.90
39677;DHT22;27789;50.840;4.386;2023-06-10T03:31:06;21.60;98.90
39677;DHT22;27789;50.840;4.386;2023-06-10T03:33:32;21.60;98.90
39677;DHT22;27789;50.840;4.386;2023-06-10T03:35:58;21.50;98.90
39677;DHT22;27789;50.840;4.386;2023-06-10T03:38:24;21.50;99.00
39677;DHT22;27789;50.840;4.386;2023-06-10T03:40:49;21.50;99.10
39677;DHT22;27789;50.840;4.386;2023-06-10T03:43:15;21.50;99.10
39677;DHT22;27789;50.840;4.386;2023-06-10T03:45:40;21.40;99.40
39677;DHT22;27789;50.840;4.386;2023-06-10T03:48:06;21.40;99.20
39677;DHT22;27789;50.840;4.386;2023-06-10T03:50:33;21.40;99.20
39677;DHT22;27789;50.840;4.386;2023-06-10T03:52:59;21.40;99.20
39677;DHT22;27789;50.840;4.386;2023-06-10T03:55:25;21.40;99.20
39677;DHT22;27789;50.840;4.386;2023-06-10T03:57:50;21.40;99.30
39677;DHT22;27789;50.840;4.386;2023-06-10T04:00:16;21.40;99.30
39677;DHT22;27789;50.840;4.386;2023-06-10T04:02:43;21.40;99.30
39677;DHT22;27789;50.840;4.386;2023-06-10T04:05:12;21.30;99.40
39677;DHT22;27789;50.840;4.386;2023-06-10T04:07:39;21.30;99.40
39677;DHT22;27789;50.840;4.386;2023-06-10T04:10:06;21.30;99.50
39677;DHT22;27789;50.840;4.386;2023-06-10T04:12:32;21.30;99.60
39677;DHT22;27789;50.840;4.386;2023-06-10T04:14:57;21.30;99.60
39677;DHT22;27789;50.840;4.386;2023-06-10T04:17:23;21.30;99.70
39677;DHT22;27789;50.840;4.386;2023-06-10T04:19:49;21.30;99.70
39677;DHT22;27789;50.840;4.386;2023-06-10T04:22:15;21.30;99.70
39677;DHT22;27789;50.840;4.386;2023-06-10T04:24:42;21.30;99.70
39677;DHT22;27789;50.840;4.386;2023-06-10T04:27:08;21.30;99.80
39677;DHT22;27789;50.840;4.386;2023-06-10T04:29:33;21.30;99.80
39677;DHT22;27789;50.840;4.386;2023-06-10T04:31:59;21.30;99.90
39677;DHT22;27789;50.840;4.386;2023-06-10T04:34:26;21.20;99.90
39677;DHT22;27789;50.840;4.386;2023-06-10T04:36:52;21.20;99.90
39677;DHT22;27789;50.840;4.386;2023-06-10T04:39:18;21.20;99.90
39677;DHT22;27789;50.840;4.386;2023-06-10T04:41:43;21.20;99.90
39677;DHT22;27789;50.840;4.386;2023-06-10T04:44:09;21.20;99.90
39677;DHT22;27789;50.840;4.386;2023-06-10T04:46:36;21.20;99.90
39677;DHT22;27789;50.840;4.386;2023-06-10T04:49:01;21.20;99.90
39677;DHT22;27789;50.840;4.386;2023-06-10T04:51:27;21.20;99.90
39677;DHT22;27789;50.840;4.386;2023-06-10T04:53:53;21.30;99.90
39677;DHT22;27789;50.840;4.386;2023-06-10T04:56:18;21.30;99.90
39677;DHT22;27789;50.840;4.386;2023-06-10T04:58:45;21.30;99.90
39677;DHT22;27789;50.840;4.386;2023-06-10T05:01:11;21.30;99.90
39677;DHT22;27789;50.840;4.386;2023-06-10T05:03:36;21.30;99.90
39677;DHT22;27789;50.840;4.386;2023-06-10T05:06:02;21.30;99.90
39677;DHT22;27789;50.840;4.386;2023-06-10T05:08:27;21.30;99.90
39677;DHT22;27789;50.840;4.386;2023-06-10T05:10:53;21.30;99.90
39677;DHT22;27789;50.840;4.386;2023-06-10T05:13:18;21.30;99.90
39677;DHT22;27789;50.840;4.386;2023-06-10T05:15:44;21.30;99.90
39677;DHT22;27789;50.840;4.386;2023-06-10T05:18:11;21.40;99.90
39677;DHT22;27789;50.840;4.386;2023-06-10T05:20:38;21.40;99.90
39677;DHT22;27789;50.840;4.386;2023-06-10T05:23:03;21.40;99.90
39677;DHT22;27789;50.840;4.386;2023-06-10T05:25:32;21.50;99.90
39677;DHT22;27789;50.840;4.386;2023-06-10T05:27:58;21.50;99.90
39677;DHT22;27789;50.840;4.386;2023-06-10T05:30:23;21.50;99.90
39677;DHT22;27789;50.840;4.386;2023-06-10T05:32:49;21.60;99.90
39677;DHT22;27789;50.840;4.386;2023-06-10T05:35:16;21.60;99.90
39677;DHT22;27789;50.840;4.386;2023-06-10T05:37:42;21.60;99.90
39677;DHT22;27789;50.840;4.386;2023-06-10T05:40:08;21.70;99.90
39677;DHT22;27789;50.840;4.386;2023-06-10T05:42:33;21.70;99.90
39677;DHT22;27789;50.840;4.386;2023-06-10T05:44:59;21.80;99.90
39677;DHT22;27789;50.840;4.386;2023-06-10T05:47:24;21.80;99.90
39677;DHT22;27789;50.840;4.386;2023-06-10T05:49:50;21.80;99.90
39677;DHT22;27789;50.840;4.386;2023-06-10T05:52:17;21.80;99.90
39677;DHT22;27789;50.840;4.386;2023-06-10T05:54:42;21.90;99.90
39677;DHT22;27789;50.840;4.386;2023-06-10T05:57:08;21.80;99.90
39677;DHT22;27789;50.840;4.386;2023-06-10T05:59:33;21.90;99.90
39677;DHT22;27789;50.840;4.386;2023-06-10T06:01:59;21.90;99.80
39677;DHT22;27789;50.840;4.386;2023-06-10T06:04:25;22.00;99.90
39677;DHT22;27789;50.840;4.386;2023-06-10T06:06:50;22.00;99.80
39677;DHT22;27789;50.840;4.386;2023-06-10T06:09:16;22.00;99.60
39677;DHT22;27789;50.840;4.386;2023-06-10T06:11:41;22.10;99.80
39677;DHT22;27789;50.840;4.386;2023-06-10T06:14:07;22.10;99.80
39677;DHT22;27789;50.840;4.386;2023-06-10T06:16:32;22.20;99.70
39677;DHT22;27789;50.840;4.386;2023-06-10T06:18:58;22.20;99.70
39677;DHT22;27789;50.840;4.386;2023-06-10T06:21:23;22.30;99.70
39677;DHT22;27789;50.840;4.386;2023-06-10T06:23:49;22.30;99.80
39677;DHT22;27789;50.840;4.386;2023-06-10T06:26:15;22.30;99.90
39677;DHT22;27789;50.840;4.386;2023-06-10T06:28:40;22.40;99.80
39677;DHT22;27789;50.840;4.386;2023-06-10T06:31:06;22.40;99.80
39677;DHT22;27789;50.840;4.386;2023-06-10T06:33:32;22.40;99.90
39677;DHT22;27789;50.840;4.386;2023-06-10T06:35:58;22.50;99.80
39677;DHT22;27789;50.840;4.386;2023-06-10T06:38:25;22.50;99.70
39677;DHT22;27789;50.840;4.386;2023-06-10T06:40:51;22.60;99.80
39677;DHT22;27789;50.840;4.386;2023-06-10T06:43:16;22.60;99.80
39677;DHT22;27789;50.840;4.386;2023-06-10T06:45:46;22.70;99.70
39677;DHT22;27789;50.840;4.386;2023-06-10T06:48:12;22.70;99.50
39677;DHT22;27789;50.840;4.386;2023-06-10T06:50:37;22.80;99.30
39677;DHT22;27789;50.840;4.386;2023-06-10T06:53:03;22.80;99.50
39677;DHT22;27789;50.840;4.386;2023-06-10T06:55:29;22.90;99.50
39677;DHT22;27789;50.840;4.386;2023-06-10T06:57:54;23.00;99.50
39677;DHT22;27789;50.840;4.386;2023-06-10T07:00:21;23.00;99.20
39677;DHT22;27789;50.840;4.386;2023-06-10T07:02:46;23.10;99.10
39677;DHT22;27789;50.840;4.386;2023-06-10T07:05:12;23.10;99.10
39677;DHT22;27789;50.840;4.386;2023-06-10T07:07:37;23.20;99.00
39677;DHT22;27789;50.840;4.386;2023-06-10T07:10:03;23.30;99.00
39677;DHT22;27789;50.840;4.386;2023-06-10T07:12:28;23.30;99.30
39677;DHT22;27789;50.840;4.386;2023-06-10T07:14:54;23.40;99.10
39677;DHT22;27789;50.840;4.386;2023-06-10T07:17:19;23.40;98.80
39677;DHT22;27789;50.840;4.386;2023-06-10T07:19:45;23.50;98.80
39677;DHT22;27789;50.840;4.386;2023-06-10T07:22:11;23.50;98.70
39677;DHT22;27789;50.840;4.386;2023-06-10T07:24:36;23.60;98.60
39677;DHT22;27789;50.840;4.386;2023-06-10T07:27:02;23.60;98.40
39677;DHT22;27789;50.840;4.386;2023-06-10T07:29:27;23.70;98.40
39677;DHT22;27789;50.840;4.386;2023-06-10T07:31:53;23.80;98.50
39677;DHT22;27789;50.840;4.386;2023-06-10T07:34:19;23.90;98.30
39677;DHT22;27789;50.840;4.386;2023-06-10T07:36:44;23.90;98.30
39677;DHT22;27789;50.840;4.386;2023-06-10T07:39:10;24.00;98.00
39677;DHT22;27789;50.840;4.386;2023-06-10T07:41:35;24.10;98.00
39677;DHT22;27789;50.840;4.386;2023-06-10T07:44:01;24.20;97.90
39677;DHT22;27789;50.840;4.386;2023-06-10T07:46:26;24.20;97.40
39677;DHT22;27789;50.840;4.386;2023-06-10T07:48:53;24.30;97.60
39677;DHT22;27789;50.840;4.386;2023-06-10T07:51:18;24.40;97.30
39677;DHT22;27789;50.840;4.386;2023-06-10T07:53:44;24.50;97.20
39677;DHT22;27789;50.840;4.386;2023-06-10T07:56:09;24.60;97.30
39677;DHT22;27789;50.840;4.386;2023-06-10T07:58:35;24.60;97.00
39677;DHT22;27789;50.840;4.386;2023-06-10T08:01:00;24.80;96.60
39677;DHT22;27789;50.840;4.386;2023-06-10T08:03:25;24.80;96.50
39677;DHT22;27789;50.840;4.386;2023-06-10T08:05:51;24.90;96.80
39677;DHT22;27789;50.840;4.386;2023-06-10T08:08:16;24.90;96.80
39677;DHT22;27789;50.840;4.386;2023-06-10T08:10:42;25.00;96.20
39677;DHT22;27789;50.840;4.386;2023-06-10T08:13:08;25.10;96.40
39677;DHT22;27789;50.840;4.386;2023-06-10T08:15:33;25.10;96.80
39677;DHT22;27789;50.840;4.386;2023-06-10T08:17:59;25.20;96.50
39677;DHT22;27789;50.840;4.386;2023-06-10T08:20:24;25.40;96.70
39677;DHT22;27789;50.840;4.386;2023-06-10T08:22:50;25.40;96.20
39677;DHT22;27789;50.840;4.386;2023-06-10T08:25:15;25.50;96.10
39677;DHT22;27789;50.840;4.386;2023-06-10T08:27:41;25.50;95.90
39677;DHT22;27789;50.840;4.386;2023-06-10T08:30:07;25.60;95.90
39677;DHT22;27789;50.840;4.386;2023-06-10T08:32:36;25.70;96.00
39677;DHT22;27789;50.840;4.386;2023-06-10T08:35:02;25.70;95.70
39677;DHT22;27789;50.840;4.386;2023-06-10T08:37:27;25.80;95.90
39677;DHT22;27789;50.840;4.386;2023-06-10T08:39:52;25.90;96.00
39677;DHT22;27789;50.840;4.386;2023-06-10T08:44:43;26.00;95.40
39677;DHT22;27789;50.840;4.386;2023-06-10T08:47:14;26.10;95.40
39677;DHT22;27789;50.840;4.386;2023-06-10T08:49:46;26.20;95.40
39677;DHT22;27789;50.840;4.386;2023-06-10T08:52:16;26.20;95.40
39677;DHT22;27789;50.840;4.386;2023-06-10T08:57:30;26.40;95.80
39677;DHT22;27789;50.840;4.386;2023-06-10T08:59:56;26.50;95.50
39677;DHT22;27789;50.840;4.386;2023-06-10T09:02:22;26.60;95.10
39677;DHT22;27789;50.840;4.386;2023-06-10T09:04:49;26.70;95.10
39677;DHT22;27789;50.840;4.386;2023-06-10T09:07:17;26.80;95.00
39677;DHT22;27789;50.840;4.386;2023-06-10T09:09:43;26.90;95.20
39677;DHT22;27789;50.840;4.386;2023-06-10T09:12:10;26.90;94.50
39677;DHT22;27789;50.840;4.386;2023-06-10T09:14:35;27.00;94.40
39677;DHT22;27789;50.840;4.386;2023-06-10T09:17:01;27.00;94.60
39677;DHT22;27789;50.840;4.386;2023-06-10T09:19:27;27.00;94.40
39677;DHT22;27789;50.840;4.386;2023-06-10T09:21:53;27.10;94.70
39677;DHT22;27789;50.840;4.386;2023-06-10T09:24:20;27.20;94.60
39677;DHT22;27789;50.840;4.386;2023-06-10T09:26:47;27.30;94.20
39677;DHT22;27789;50.840;4.386;2023-06-10T09:29:12;27.30;93.90
39677;DHT22;27789;50.840;4.386;2023-06-10T09:31:38;27.40;94.00
39677;DHT22;27789;50.840;4.386;2023-06-10T09:34:05;27.60;94.20
39677;DHT22;27789;50.840;4.386;2023-06-10T09:36:31;27.70;93.70
39677;DHT22;27789;50.840;4.386;2023-06-10T09:38:57;27.70;93.70
39677;DHT22;27789;50.840;4.386;2023-06-10T09:41:31;27.70;93.80
39677;DHT22;27789;50.840;4.386;2023-06-10T09:43:57;27.80;93.90
39677;DHT22;27789;50.840;4.386;2023-06-10T09:46:22;27.90;93.90
39677;DHT22;27789;50.840;4.386;2023-06-10T09:48:48;27.90;93.40
39677;DHT22;27789;50.840;4.386;2023-06-10T09:51:13;28.10;94.20
39677;DHT22;27789;50.840;4.386;2023-06-10T09:53:39;28.20;93.70
39677;DHT22;27789;50.840;4.386;2023-06-10T09:56:05;28.20;92.90
39677;DHT22;27789;50.840;4.386;2023-06-10T09:58:39;28.40;93.20
39677;DHT22;27789;50.840;4.386;2023-06-10T10:01:12;28.40;92.60
39677;DHT22;27789;50.840;4.386;2023-06-10T10:03:44;28.50;92.90
39677;DHT22;27789;50.840;4.386;2023-06-10T10:06:11;28.70;93.20
39677;DHT22;27789;50.840;4.386;2023-06-10T10:08:36;28.80;92.50
39677;DHT22;27789;50.840;4.386;2023-06-10T10:11:02;28.80;92.80
39677;DHT22;27789;50.840;4.386;2023-06-10T10:13:28;28.90;92.80
39677;DHT22;27789;50.840;4.386;2023-06-10T10:15:55;29.00;92.30
39677;DHT22;27789;50.840;4.386;2023-06-10T10:18:22;29.10;92.50
39677;DHT22;27789;50.840;4.386;2023-06-10T10:20:53;29.20;92.40
39677;DHT22;27789;50.840;4.386;2023-06-10T10:23:31;29.30;92.30
39677;DHT22;27789;50.840;4.386;2023-06-10T10:26:00;29.40;92.10
39677;DHT22;27789;50.840;4.386;2023-06-10T10:28:26;29.50;92.70
39677;DHT22;27789;50.840;4.386;2023-06-10T10:30:55;29.70;91.60
39677;DHT22;27789;50.840;4.386;2023-06-10T10:36:00;30.00;91.50
39677;DHT22;27789;50.840;4.386;2023-06-10T10:38:26;30.10;91.00
39677;DHT22;27789;50.840;4.386;2023-06-10T10:40:53;30.20;91.40
39677;DHT22;27789;50.840;4.386;2023-06-10T10:43:20;30.30;90.00
39677;DHT22;27789;50.840;4.386;2023-06-10T10:45:46;30.40;89.30
39677;DHT22;27789;50.840;4.386;2023-06-10T10:48:22;30.60;90.20
39677;DHT22;27789;50.840;4.386;2023-06-10T10:50:55;30.80;89.40
39677;DHT22;27789;50.840;4.386;2023-06-10T10:53:21;30.90;88.20
39677;DHT22;27789;50.840;4.386;2023-06-10T10:55:57;30.80;87.00
39677;DHT22;27789;50.840;4.386;2023-06-10T10:58:24;30.90;87.10
39677;DHT22;27789;50.840;4.386;2023-06-10T11:00:50;31.00;87.90
39677;DHT22;27789;50.840;4.386;2023-06-10T11:03:16;31.00;87.30
39677;DHT22;27789;50.840;4.386;2023-06-10T11:05:45;31.00;87.30
39677;DHT22;27789;50.840;4.386;2023-06-10T11:10:52;31.10;87.00
39677;DHT22;27789;50.840;4.386;2023-06-10T11:13:21;31.20;88.00
39677;DHT22;27789;50.840;4.386;2023-06-10T11:15:47;31.40;86.60
39677;DHT22;27789;50.840;4.386;2023-06-10T11:18:14;31.60;83.00
39677;DHT22;27789;50.840;4.386;2023-06-10T11:28:30;32.00;85.40
39677;DHT22;27789;50.840;4.386;2023-06-10T11:30:58;32.30;86.20
39677;DHT22;27789;50.840;4.386;2023-06-10T11:33:24;32.90;84.60
39677;DHT22;27789;50.840;4.386;2023-06-10T11:35:50;33.90;84.10
39677;DHT22;27789;50.840;4.386;2023-06-10T11:38:15;34.90;82.10
39677;DHT22;27789;50.840;4.386;2023-06-10T11:40:46;35.30;80.20
39677;DHT22;27789;50.840;4.386;2023-06-10T11:43:11;35.80;79.90
39677;DHT22;27789;50.840;4.386;2023-06-10T11:45:37;36.30;79.00
39677;DHT22;27789;50.840;4.386;2023-06-10T11:48:02;36.80;79.80
39677;DHT22;27789;50.840;4.386;2023-06-10T11:50:31;37.10;80.30
39677;DHT22;27789;50.840;4.386;2023-06-10T11:52:57;37.60;80.00
39677;DHT22;27789;50.840;4.386;2023-06-10T11:58:00;37.90;78.00
39677;DHT22;27789;50.840;4.386;2023-06-10T12:00:25;38.00;77.10
39677;DHT22;27789;50.840;4.386;2023-06-10T12:02:55;38.10;77.10
39677;DHT22;27789;50.840;4.386;2023-06-10T12:05:22;38.00;77.20
39677;DHT22;27789;50.840;4.386;2023-06-10T12:07:48;38.00;77.50
39677;DHT22;27789;50.840;4.386;2023-06-10T12:10:13;38.50;78.00
39677;DHT22;27789;50.840;4.386;2023-06-10T12:12:39;38.90;77.50
39677;DHT22;27789;50.840;4.386;2023-06-10T12:15:05;38.20;77.50
39677;DHT22;27789;50.840;4.386;2023-06-10T12:20:06;38.10;77.50
39677;DHT22;27789;50.840;4.386;2023-06-10T12:22:39;38.50;78.00
39677;DHT22;27789;50.840;4.386;2023-06-10T12:25:05;38.90;76.90
39677;DHT22;27789;50.840;4.386;2023-06-10T12:27:32;39.00;76.80
39677;DHT22;27789;50.840;4.386;2023-06-10T12:29:59;39.30;76.70
39677;DHT22;27789;50.840;4.386;2023-06-10T12:35:05;39.40;75.60
39677;DHT22;27789;50.840;4.386;2023-06-10T12:37:31;39.40;75.40
39677;DHT22;27789;50.840;4.386;2023-06-10T12:40:01;39.50;75.60
39677;DHT22;27789;50.840;4.386;2023-06-10T12:42:28;39.30;75.70
39677;DHT22;27789;50.840;4.386;2023-06-10T12:44:55;39.50;76.30
39677;DHT22;27789;50.840;4.386;2023-06-10T12:47:28;39.70;75.00
39677;DHT22;27789;50.840;4.386;2023-06-10T12:49:54;39.70;75.20
39677;DHT22;27789;50.840;4.386;2023-06-10T12:52:20;40.10;76.20
39677;DHT22;27789;50.840;4.386;2023-06-10T12:54:45;40.40;74.90
39677;DHT22;27789;50.840;4.386;2023-06-10T12:57:11;40.70;75.10
39677;DHT22;27789;50.840;4.386;2023-06-10T12:59:38;40.90;75.50
39677;DHT22;27789;50.840;4.386;2023-06-10T13:02:03;40.90;74.90
39677;DHT22;27789;50.840;4.386;2023-06-10T13:04:29;40.70;75.10
39677;DHT22;27789;50.840;4.386;2023-06-10T13:06:54;40.70;74.50
39677;DHT22;27789;50.840;4.386;2023-06-10T13:09:20;40.50;74.60
39677;DHT22;27789;50.840;4.386;2023-06-10T13:11:45;40.60;75.50
39677;DHT22;27789;50.840;4.386;2023-06-10T13:14:11;40.70;74.70
39677;DHT22;27789;50.840;4.386;2023-06-10T13:16:36;40.60;74.80
39677;DHT22;27789;50.840;4.386;2023-06-10T13:19:05;40.10;74.50
39677;DHT22;27789;50.840;4.386;2023-06-10T13:21:31;39.40;75.70
39677;DHT22;27789;50.840;4.386;2023-06-10T13:23:57;39.00;76.00
39677;DHT22;27789;50.840;4.386;2023-06-10T13:26:22;38.80;75.60
39677;DHT22;27789;50.840;4.386;2023-06-10T13:28:48;38.80;76.90
39677;DHT22;27789;50.840;4.386;2023-06-10T13:31:13;38.90;76.00
39677;DHT22;27789;50.840;4.386;2023-06-10T13:33:39;39.10;74.90
39677;DHT22;27789;50.840;4.386;2023-06-10T13:36:05;39.10;74.60
39677;DHT22;27789;50.840;4.386;2023-06-10T13:38:31;39.20;75.00
39677;DHT22;27789;50.840;4.386;2023-06-10T13:40:56;39.20;75.10
39677;DHT22;27789;50.840;4.386;2023-06-10T13:43:22;39.30;75.40
39677;DHT22;27789;50.840;4.386;2023-06-10T13:45:47;39.20;74.60
39677;DHT22;27789;50.840;4.386;2023-06-10T13:48:13;38.90;74.50
39677;DHT22;27789;50.840;4.386;2023-06-10T13:50:38;38.70;75.10
39677;DHT22;27789;50.840;4.386;2023-06-10T13:53:04;38.70;74.80
39677;DHT22;27789;50.840;4.386;2023-06-10T13:55:29;38.20;74.50
39677;DHT22;27789;50.840;4.386;2023-06-10T13:57:55;37.60;74.90
39677;DHT22;27789;50.840;4.386;2023-06-10T14:00:20;37.00;75.10
39677;DHT22;27789;50.840;4.386;2023-06-10T14:02:46;36.60;75.30
39677;DHT22;27789;50.840;4.386;2023-06-10T14:05:11;36.30;75.90
39677;DHT22;27789;50.840;4.386;2023-06-10T14:07:37;36.00;75.60
39677;DHT22;27789;50.840;4.386;2023-06-10T14:10:03;35.60;76.00
39677;DHT22;27789;50.840;4.386;2023-06-10T14:12:28;35.50;76.70
39677;DHT22;27789;50.840;4.386;2023-06-10T14:14:54;35.30;77.00
39677;DHT22;27789;50.840;4.386;2023-06-10T14:17:19;35.20;76.50
39677;DHT22;27789;50.840;4.386;2023-06-10T14:19:45;35.30;76.70
39677;DHT22;27789;50.840;4.386;2023-06-10T14:22:11;35.20;76.50
39677;DHT22;27789;50.840;4.386;2023-06-10T14:24:36;35.00;76.40
39677;DHT22;27789;50.840;4.386;2023-06-10T14:27:02;35.00;76.80
39677;DHT22;27789;50.840;4.386;2023-06-10T14:29:28;34.90;76.90
39677;DHT22;27789;50.840;4.386;2023-06-10T14:31:57;34.70;76.70
39677;DHT22;27789;50.840;4.386;2023-06-10T14:34:22;34.40;76.90
39677;DHT22;27789;50.840;4.386;2023-06-10T14:36:53;34.20;77.40
39677;DHT22;27789;50.840;4.386;2023-06-10T14:39:19;34.20;77.40
39677;DHT22;27789;50.840;4.386;2023-06-10T14:41:45;34.10;77.00
39677;DHT22;27789;50.840;4.386;2023-06-10T14:44:10;34.00;76.80
39677;DHT22;27789;50.840;4.386;2023-06-10T14:46:35;33.90;77.20
39677;DHT22;27789;50.840;4.386;2023-06-10T14:49:01;34.00;77.40
39677;DHT22;27789;50.840;4.386;2023-06-10T14:51:27;34.00;77.50
39677;DHT22;27789;50.840;4.386;2023-06-10T14:53:53;34.10;77.00
39677;DHT22;27789;50.840;4.386;2023-06-10T14:56:18;34.10;77.30
39677;DHT22;27789;50.840;4.386;2023-06-10T14:58:44;34.20;78.00
39677;DHT22;27789;50.840;4.386;2023-06-10T15:01:09;34.20;77.90
39677;DHT22;27789;50.840;4.386;2023-06-10T15:03:35;34.30;77.80
39677;DHT22;27789;50.840;4.386;2023-06-10T15:06:01;34.20;77.40
39677;DHT22;27789;50.840;4.386;2023-06-10T15:08:26;34.30;77.20
39677;DHT22;27789;50.840;4.386;2023-06-10T15:10:53;34.30;77.40
39677;DHT22;27789;50.840;4.386;2023-06-10T15:13:18;34.40;77.30
39677;DHT22;27789;50.840;4.386;2023-06-10T15:15:44;34.30;76.90
39677;DHT22;27789;50.840;4.386;2023-06-10T15:18:10;34.10;77.10
39677;DHT22;27789;50.840;4.386;2023-06-10T15:20:35;33.90;76.90
39677;DHT22;27789;50.840;4.386;2023-06-10T15:23:01;33.80;77.30
39677;DHT22;27789;50.840;4.386;2023-06-10T15:25:27;33.90;77.20
39677;DHT22;27789;50.840;4.386;2023-06-10T15:27:52;33.90;77.60
39677;DHT22;27789;50.840;4.386;2023-06-10T15:30:18;33.90;77.40
39677;DHT22;27789;50.840;4.386;2023-06-10T15:32:43;33.90;78.10
39677;DHT22;27789;50.840;4.386;2023-06-10T15:35:09;33.90;77.80
39677;DHT22;27789;50.840;4.386;2023-06-10T15:37:34;34.00;78.20
39677;DHT22;27789;50.840;4.386;2023-06-10T15:40:00;34.00;78.30
39677;DHT22;27789;50.840;4.386;2023-06-10T15:42:26;33.90;78.00
39677;DHT22;27789;50.840;4.386;2023-06-10T15:44:51;33.90;78.60
39677;DHT22;27789;50.840;4.386;2023-06-10T15:47:18;33.80;77.70
39677;DHT22;27789;50.840;4.386;2023-06-10T15:49:44;33.70;77.80
39677;DHT22;27789;50.840;4.386;2023-06-10T15:52:09;33.70;78.50
39677;DHT22;27789;50.840;4.386;2023-06-10T15:54:35;33.60;78.20
39677;DHT22;27789;50.840;4.386;2023-06-10T15:57:00;33.60;78.80